createdAt,value
2022-08-31T00:00:30.658Z,17.10
2022-08-31T00:03:16.528Z,17.10
2022-08-31T00:05:45.053Z,17.10
2022-08-31T00:08:13.484Z,17.10
2022-08-31T00:10:46.518Z,17.10
2022-08-31T00:13:17.994Z,17.10
2022-08-31T00:15:46.842Z,17.00
2022-08-31T00:18:15.590Z,17.00
2022-08-31T00:20:44.600Z,16.90
2022-08-31T00:23:15.785Z,16.90
2022-08-31T00:25:47.623Z,16.90
2022-08-31T00:28:17.687Z,16.90
2022-08-31T00:30:46.831Z,16.90
2022-08-31T00:33:15.604Z,16.90
2022-08-31T00:35:44.580Z,16.90
2022-08-31T00:38:13.475Z,16.90
2022-08-31T00:40:47.006Z,16.90
2022-08-31T00:43:40.536Z,16.80
2022-08-31T00:46:10.725Z,16.80
2022-08-31T00:48:43.920Z,16.80
2022-08-31T00:51:13.195Z,16.80
2022-08-31T00:53:50.747Z,16.90
2022-08-31T00:56:21.565Z,16.90
2022-08-31T00:58:54.630Z,16.90
2022-08-31T01:01:24.146Z,16.90
2022-08-31T01:03:52.719Z,16.90
2022-08-31T01:06:22.175Z,16.90
2022-08-31T01:08:52.387Z,16.90
2022-08-31T01:11:23.262Z,16.90
2022-08-31T01:13:52.167Z,16.90
2022-08-31T01:16:25.618Z,16.90
2022-08-31T01:18:55.335Z,16.90
2022-08-31T01:21:28.876Z,16.90
2022-08-31T01:24:00.349Z,16.90
2022-08-31T01:26:31.164Z,16.90
2022-08-31T01:29:03.790Z,16.90
2022-08-31T01:31:34.778Z,16.90
2022-08-31T01:34:03.371Z,16.90
2022-08-31T01:36:32.920Z,16.90
2022-08-31T01:39:02.663Z,16.90
2022-08-31T01:41:31.026Z,16.90
2022-08-31T01:43:59.354Z,16.90
2022-08-31T01:46:27.785Z,16.90
2022-08-31T01:48:56.076Z,16.80
2022-08-31T01:51:24.460Z,16.80
2022-08-31T01:53:54.629Z,16.80
2022-08-31T01:56:27.539Z,16.70
2022-08-31T01:58:56.222Z,16.70
2022-08-31T02:01:33.412Z,16.70
2022-08-31T02:04:03.944Z,16.70
2022-08-31T02:06:33.126Z,16.70
2022-08-31T02:09:01.549Z,16.70
2022-08-31T02:11:31.392Z,16.70
2022-08-31T02:13:59.876Z,16.70
2022-08-31T02:16:28.325Z,16.70
2022-08-31T02:18:56.757Z,16.70
2022-08-31T02:21:25.319Z,16.60
2022-08-31T02:23:53.934Z,16.60
2022-08-31T02:26:24.589Z,16.60
2022-08-31T02:28:54.490Z,16.50
2022-08-31T02:31:23.108Z,16.50
2022-08-31T02:33:51.469Z,16.40
2022-08-31T02:36:19.833Z,16.40
2022-08-31T02:38:48.270Z,16.40
2022-08-31T02:41:17.769Z,16.40
2022-08-31T02:43:46.263Z,16.40
2022-08-31T02:46:16.157Z,16.40
2022-08-31T02:48:47.038Z,16.30
2022-08-31T02:51:15.384Z,16.30
2022-08-31T02:53:43.663Z,16.30
2022-08-31T02:56:14.311Z,16.30
2022-08-31T02:58:42.663Z,16.20
2022-08-31T03:01:11.692Z,16.30
2022-08-31T03:03:47.110Z,16.20
2022-08-31T03:06:17.377Z,16.10
2022-08-31T03:08:45.488Z,16.10
2022-08-31T03:11:14.684Z,16.10
2022-08-31T03:13:43.188Z,16.10
2022-08-31T03:16:14.282Z,16.00
2022-08-31T03:18:43.963Z,16.00
2022-08-31T03:21:12.092Z,16.00
2022-08-31T03:23:40.266Z,16.00
2022-08-31T03:26:08.511Z,15.90
2022-08-31T03:28:38.246Z,16.00
2022-08-31T03:31:08.322Z,15.90
2022-08-31T03:33:36.631Z,15.90
2022-08-31T03:36:06.514Z,16.00
2022-08-31T03:38:34.885Z,16.00
2022-08-31T03:41:03.528Z,15.90
2022-08-31T03:43:31.656Z,15.90
2022-08-31T03:45:59.787Z,15.90
2022-08-31T03:48:27.934Z,15.90
2022-08-31T03:50:56.130Z,15.90
2022-08-31T03:53:25.743Z,15.90
2022-08-31T03:56:01.057Z,15.90
2022-08-31T03:58:29.639Z,15.90
2022-08-31T04:00:57.970Z,15.90
2022-08-31T04:03:26.398Z,15.90
2022-08-31T04:05:54.524Z,15.90
2022-08-31T04:08:23.164Z,15.90
2022-08-31T04:10:54.201Z,15.90
2022-08-31T04:13:27.994Z,15.90
2022-08-31T04:16:01.452Z,15.90
2022-08-31T04:18:29.600Z,15.80
2022-08-31T04:20:57.735Z,15.80
2022-08-31T04:23:29.318Z,15.80
2022-08-31T04:25:59.426Z,15.80
2022-08-31T04:28:27.572Z,15.80
2022-08-31T04:30:55.768Z,15.90
2022-08-31T04:33:23.975Z,15.90
2022-08-31T04:35:52.080Z,15.90
2022-08-31T04:38:20.205Z,15.90
2022-08-31T04:40:48.508Z,15.90
2022-08-31T04:43:23.718Z,15.90
2022-08-31T04:45:52.655Z,15.90
2022-08-31T04:48:20.790Z,15.80
2022-08-31T04:50:50.740Z,15.90
2022-08-31T04:53:19.059Z,15.90
2022-08-31T04:55:47.257Z,15.90
2022-08-31T04:58:17.440Z,15.90
2022-08-31T05:00:47.029Z,15.90
2022-08-31T05:03:15.177Z,15.90
2022-08-31T05:05:43.348Z,15.90
2022-08-31T05:08:11.528Z,15.90
2022-08-31T05:10:40.731Z,15.90
2022-08-31T05:13:08.887Z,16.00
2022-08-31T05:15:42.323Z,16.00
2022-08-31T05:18:12.477Z,16.00
2022-08-31T05:20:41.068Z,16.10
2022-08-31T05:23:10.264Z,16.00
2022-08-31T05:25:40.658Z,16.00
2022-08-31T05:28:09.072Z,16.10
2022-08-31T05:30:37.165Z,16.10
2022-08-31T05:33:05.475Z,16.10
2022-08-31T05:35:36.209Z,16.10
2022-08-31T05:38:04.473Z,16.20
2022-08-31T05:40:32.579Z,16.20
2022-08-31T05:43:00.737Z,16.20
2022-08-31T05:45:29.037Z,16.20
2022-08-31T05:47:57.169Z,16.20
2022-08-31T05:50:25.295Z,16.20
2022-08-31T05:52:54.791Z,16.30
2022-08-31T05:55:22.894Z,16.30
2022-08-31T05:57:52.549Z,16.30
2022-08-31T06:00:20.826Z,16.40
2022-08-31T06:02:53.752Z,16.40
2022-08-31T06:05:22.381Z,16.50
2022-08-31T06:07:50.728Z,16.50
2022-08-31T06:10:21.124Z,16.50
2022-08-31T06:12:50.017Z,16.60
2022-08-31T06:15:18.167Z,16.60
2022-08-31T06:17:46.277Z,16.60
2022-08-31T06:20:17.731Z,16.70
2022-08-31T06:22:46.663Z,16.70
2022-08-31T06:25:19.288Z,16.70
2022-08-31T06:27:50.467Z,16.70
2022-08-31T06:30:22.043Z,16.80
2022-08-31T06:32:50.087Z,16.80
2022-08-31T06:35:18.245Z,16.90
2022-08-31T06:37:46.510Z,17.00
2022-08-31T06:40:14.752Z,17.00
2022-08-31T06:42:42.958Z,17.10
2022-08-31T06:45:13.603Z,17.20
2022-08-31T06:47:41.771Z,17.30
2022-08-31T06:50:12.350Z,17.40
2022-08-31T06:52:40.744Z,17.50
2022-08-31T06:55:10.513Z,17.50
2022-08-31T06:57:38.680Z,17.60
2022-08-31T07:00:08.541Z,17.70
2022-08-31T07:02:38.094Z,17.80
2022-08-31T07:05:07.028Z,17.90
2022-08-31T07:07:35.130Z,18.00
2022-08-31T07:10:03.247Z,18.10
2022-08-31T07:12:31.622Z,18.20
2022-08-31T07:14:59.796Z,18.30
2022-08-31T07:17:29.263Z,18.30
2022-08-31T07:19:58.740Z,18.50
2022-08-31T07:22:26.863Z,18.60
2022-08-31T07:24:54.974Z,18.70
2022-08-31T07:27:23.067Z,18.80
2022-08-31T07:29:51.205Z,18.70
2022-08-31T07:32:19.351Z,18.70
2022-08-31T07:34:50.490Z,18.70
2022-08-31T07:37:42.222Z,18.70
2022-08-31T07:40:28.898Z,18.70
2022-08-31T07:42:57.108Z,18.90
2022-08-31T07:45:25.792Z,19.10
2022-08-31T07:48:00.423Z,19.20
2022-08-31T07:50:31.581Z,19.30
2022-08-31T07:53:02.958Z,19.40
2022-08-31T07:55:31.697Z,19.40
2022-08-31T07:57:59.748Z,19.40
2022-08-31T08:00:30.410Z,19.50
2022-08-31T08:03:07.505Z,19.60
2022-08-31T08:05:38.649Z,19.70
2022-08-31T08:08:13.560Z,19.80
2022-08-31T08:10:52.288Z,19.80
2022-08-31T08:13:23.171Z,19.90
2022-08-31T08:15:52.287Z,20.00
2022-08-31T08:18:21.020Z,20.00
2022-08-31T08:20:49.594Z,20.00
2022-08-31T08:23:28.673Z,20.10
2022-08-31T08:26:01.521Z,20.10
2022-08-31T08:28:40.116Z,20.20
2022-08-31T08:31:12.973Z,20.10
2022-08-31T08:33:41.239Z,20.10
2022-08-31T08:36:09.837Z,20.10
2022-08-31T08:38:43.660Z,20.10
2022-08-31T08:41:15.229Z,20.00
2022-08-31T08:43:52.320Z,20.00
2022-08-31T08:46:36.833Z,20.10
2022-08-31T08:49:14.278Z,20.20
2022-08-31T08:51:42.865Z,20.30
2022-08-31T08:54:15.917Z,20.40
2022-08-31T08:56:49.275Z,20.60
2022-08-31T08:59:19.977Z,20.80
2022-08-31T09:01:53.099Z,20.90
2022-08-31T09:04:40.707Z,21.00
2022-08-31T09:07:23.036Z,21.00
2022-08-31T09:10:06.481Z,21.20
2022-08-31T09:12:44.959Z,21.20
2022-08-31T09:15:45.910Z,21.30
2022-08-31T09:18:26.498Z,21.30
2022-08-31T09:21:08.368Z,21.30
2022-08-31T09:23:49.559Z,21.30
2022-08-31T09:26:26.053Z,21.50
2022-08-31T09:28:54.802Z,21.60
2022-08-31T09:31:48.297Z,21.70
2022-08-31T09:34:29.724Z,21.70
2022-08-31T09:37:16.548Z,21.70
2022-08-31T09:39:48.653Z,21.80
2022-08-31T09:42:29.118Z,22.00
2022-08-31T09:45:04.291Z,22.10
2022-08-31T09:48:12.787Z,22.30
2022-08-31T09:50:45.188Z,22.50
2022-08-31T09:53:34.790Z,22.70
2022-08-31T09:56:14.370Z,22.80
2022-08-31T09:58:50.936Z,22.90
2022-08-31T10:01:23.730Z,22.80
2022-08-31T10:04:09.579Z,22.80
2022-08-31T10:06:47.333Z,22.80
2022-08-31T10:09:22.950Z,22.50
2022-08-31T10:11:54.357Z,22.20
2022-08-31T10:14:30.755Z,22.00
2022-08-31T10:17:04.422Z,21.90
2022-08-31T10:19:53.381Z,21.80
2022-08-31T10:22:31.487Z,21.70
2022-08-31T10:25:15.606Z,21.60
2022-08-31T10:27:48.311Z,21.90
2022-08-31T10:30:28.722Z,22.20
2022-08-31T10:33:05.509Z,22.40
2022-08-31T10:35:42.581Z,22.60
2022-08-31T10:38:24.232Z,22.80
2022-08-31T10:40:59.432Z,23.00
2022-08-31T10:43:32.693Z,23.10
2022-08-31T10:46:03.600Z,22.90
2022-08-31T10:48:34.079Z,22.60
2022-08-31T10:51:14.303Z,22.40
2022-08-31T10:54:04.371Z,22.30
2022-08-31T10:56:41.544Z,22.30
2022-08-31T10:59:19.670Z,22.40
2022-08-31T11:02:02.473Z,22.70
2022-08-31T11:04:46.599Z,22.90
2022-08-31T11:07:26.243Z,23.00
2022-08-31T11:10:05.623Z,23.20
2022-08-31T11:12:42.582Z,23.40
2022-08-31T11:15:36.828Z,23.50
2022-08-31T11:18:52.011Z,23.60
2022-08-31T11:21:55.383Z,23.70
2022-08-31T11:25:08.681Z,23.60
2022-08-31T11:27:39.654Z,23.50
2022-08-31T11:30:14.061Z,23.60
2022-08-31T11:32:46.392Z,23.60
2022-08-31T11:35:16.302Z,23.60
2022-08-31T11:37:56.041Z,23.50
2022-08-31T11:41:14.089Z,23.60
2022-08-31T11:43:52.504Z,23.60
2022-08-31T11:47:05.150Z,23.70
2022-08-31T11:49:47.926Z,23.70
2022-08-31T11:52:36.004Z,23.90
2022-08-31T11:55:16.486Z,23.90
2022-08-31T11:58:22.146Z,23.90
2022-08-31T12:00:59.259Z,24.00
2022-08-31T12:03:53.759Z,23.90
2022-08-31T12:07:11.190Z,24.10
2022-08-31T12:10:09.216Z,24.10
2022-08-31T12:13:18.780Z,24.20
2022-08-31T12:16:20.939Z,24.20
2022-08-31T12:19:28.461Z,24.20
2022-08-31T12:22:22.638Z,24.10
2022-08-31T12:25:08.628Z,24.10
2022-08-31T12:27:44.113Z,24.10
2022-08-31T12:30:20.704Z,24.10
2022-08-31T12:32:59.214Z,24.20
2022-08-31T12:35:29.860Z,24.10
2022-08-31T12:38:02.770Z,24.20
2022-08-31T12:40:34.348Z,24.20
2022-08-31T12:43:11.592Z,24.20
2022-08-31T12:46:10.888Z,24.20
2022-08-31T12:49:08.793Z,24.10
2022-08-31T12:51:43.888Z,24.00
2022-08-31T12:54:51.517Z,23.90
2022-08-31T12:57:35.423Z,23.70
2022-08-31T13:00:13.176Z,23.50
2022-08-31T13:02:44.114Z,23.60
2022-08-31T13:05:21.737Z,23.70
2022-08-31T13:07:49.893Z,23.80
2022-08-31T13:10:27.063Z,23.90
2022-08-31T13:12:59.257Z,23.90
2022-08-31T13:15:30.367Z,23.90
2022-08-31T13:18:01.496Z,23.90
2022-08-31T13:20:35.550Z,23.90
2022-08-31T13:23:05.248Z,24.00
2022-08-31T13:25:40.351Z,24.00
2022-08-31T13:28:28.884Z,24.10
2022-08-31T13:31:03.107Z,24.10
2022-08-31T13:33:33.579Z,24.20
2022-08-31T13:36:09.792Z,24.20
2022-08-31T13:38:53.291Z,24.20
2022-08-31T13:41:27.739Z,24.20
2022-08-31T13:44:05.437Z,24.20
2022-08-31T13:46:44.422Z,24.20
2022-08-31T13:49:32.354Z,24.30
2022-08-31T13:52:01.182Z,24.30
2022-08-31T13:54:32.622Z,24.30
2022-08-31T13:57:12.243Z,24.10
2022-08-31T13:59:42.207Z,24.00
2022-08-31T14:02:37.625Z,23.90
2022-08-31T14:05:08.208Z,23.90
2022-08-31T14:07:56.796Z,23.90
2022-08-31T14:10:27.373Z,23.90
2022-08-31T14:12:59.189Z,24.00
2022-08-31T14:15:41.461Z,24.00
2022-08-31T14:18:26.160Z,24.00
2022-08-31T14:21:22.722Z,24.00
2022-08-31T14:24:01.359Z,24.10
2022-08-31T14:26:32.740Z,24.10
2022-08-31T14:29:03.676Z,24.20
2022-08-31T14:31:37.488Z,24.10
2022-08-31T14:34:19.211Z,24.10
2022-08-31T14:36:52.742Z,24.00
2022-08-31T14:39:23.816Z,24.00
2022-08-31T14:41:54.758Z,23.90
2022-08-31T14:44:26.494Z,23.80
2022-08-31T14:46:56.338Z,23.70
2022-08-31T14:49:25.103Z,23.70
2022-08-31T14:51:53.318Z,23.70
2022-08-31T14:54:21.440Z,23.70
2022-08-31T14:56:51.967Z,23.60
2022-08-31T14:59:21.698Z,23.60
2022-08-31T15:01:50.767Z,23.50
2022-08-31T15:04:21.964Z,23.60
2022-08-31T15:06:54.945Z,23.60
2022-08-31T15:09:23.266Z,23.50
2022-08-31T15:11:51.419Z,23.50
2022-08-31T15:14:19.752Z,23.40
2022-08-31T15:16:50.844Z,23.40
2022-08-31T15:19:23.068Z,23.30
2022-08-31T15:21:58.644Z,23.20
2022-08-31T15:24:31.252Z,23.20
2022-08-31T15:26:59.971Z,23.20
2022-08-31T15:29:29.023Z,23.30
2022-08-31T15:31:58.998Z,23.10
2022-08-31T15:34:31.229Z,23.10
2022-08-31T15:37:02.127Z,23.00
2022-08-31T15:39:32.698Z,23.00
2022-08-31T15:42:02.778Z,23.00
2022-08-31T15:44:33.458Z,23.00
2022-08-31T15:47:21.228Z,23.00
2022-08-31T15:49:51.163Z,23.00
2022-08-31T15:52:20.040Z,22.90
2022-08-31T15:54:50.327Z,22.90
2022-08-31T15:57:18.906Z,22.80
2022-08-31T15:59:47.114Z,22.80
2022-08-31T16:02:20.714Z,22.70
2022-08-31T16:04:51.300Z,22.70
2022-08-31T16:07:22.607Z,22.60
2022-08-31T16:09:50.690Z,22.60
2022-08-31T16:12:19.104Z,22.50
2022-08-31T16:14:47.111Z,22.40
2022-08-31T16:17:19.947Z,22.50
2022-08-31T16:19:50.246Z,22.40
2022-08-31T16:22:20.823Z,22.40
2022-08-31T16:24:51.105Z,22.30
2022-08-31T16:27:20.978Z,22.30
2022-08-31T16:29:50.699Z,22.30
2022-08-31T16:32:19.178Z,22.30
2022-08-31T16:34:47.427Z,22.30
2022-08-31T16:37:16.940Z,22.30
2022-08-31T16:39:47.787Z,22.30
2022-08-31T16:42:16.534Z,22.30
2022-08-31T16:44:46.853Z,22.20
2022-08-31T16:47:18.721Z,22.10
2022-08-31T16:49:45.942Z,22.00
2022-08-31T16:52:21.169Z,22.00
2022-08-31T16:54:51.049Z,21.90
2022-08-31T16:57:21.719Z,21.80
2022-08-31T16:59:51.198Z,21.80
2022-08-31T17:02:20.674Z,21.70
2022-08-31T17:04:52.561Z,21.60
2022-08-31T17:07:23.866Z,21.50
2022-08-31T17:09:55.863Z,21.40
2022-08-31T17:12:25.971Z,21.40
2022-08-31T17:22:31.646Z,21.10
2022-08-31T17:25:03.562Z,21.00
2022-08-31T17:27:33.544Z,20.90
2022-08-31T17:30:05.705Z,20.80
2022-08-31T17:32:36.451Z,20.80
2022-08-31T17:35:08.944Z,20.70
2022-08-31T17:37:38.468Z,20.70
2022-08-31T17:40:09.308Z,20.60
2022-08-31T17:42:37.575Z,20.60
2022-08-31T17:45:06.659Z,20.50
2022-08-31T17:47:35.853Z,20.40
2022-08-31T17:50:04.938Z,20.40
2022-08-31T17:52:33.054Z,20.30
2022-08-31T17:55:02.592Z,20.20
2022-08-31T17:57:31.121Z,20.10
2022-08-31T17:59:59.279Z,20.00
2022-08-31T18:02:32.513Z,19.90
2022-08-31T18:05:09.466Z,19.80
2022-08-31T18:07:40.657Z,19.70
2022-08-31T18:10:12.685Z,19.60
2022-08-31T18:12:41.982Z,19.60
2022-08-31T18:15:12.177Z,19.50
2022-08-31T18:17:40.564Z,19.40
2022-08-31T18:20:10.643Z,19.30
2022-08-31T18:22:39.835Z,19.30
2022-08-31T18:25:10.441Z,19.20
2022-08-31T18:27:38.597Z,19.20
2022-08-31T18:30:08.177Z,19.10
2022-08-31T18:32:36.840Z,19.10
2022-08-31T18:35:14.146Z,19.10
2022-08-31T18:37:42.677Z,19.00
2022-08-31T18:40:26.724Z,19.00
2022-08-31T18:43:13.979Z,18.90
2022-08-31T18:45:42.086Z,18.90
2022-08-31T18:48:26.484Z,18.80
2022-08-31T18:50:55.526Z,18.80
2022-08-31T18:53:27.707Z,18.80
2022-08-31T18:55:59.397Z,18.80
2022-08-31T18:58:28.697Z,18.70
2022-08-31T19:00:58.354Z,18.70
2022-08-31T19:03:27.334Z,18.60
2022-08-31T19:05:57.187Z,18.60
2022-08-31T19:08:26.132Z,18.60
2022-08-31T19:10:56.226Z,18.50
2022-08-31T19:13:31.516Z,18.50
2022-08-31T19:16:03.836Z,18.50
2022-08-31T19:18:36.916Z,18.40
2022-08-31T19:21:16.344Z,18.40
2022-08-31T19:23:44.502Z,18.40
2022-08-31T19:26:19.477Z,18.30
2022-08-31T19:28:50.160Z,18.30
2022-08-31T19:31:20.877Z,18.20
2022-08-31T19:33:56.106Z,18.20
2022-08-31T19:36:24.579Z,18.10
2022-08-31T19:38:54.111Z,18.10
2022-08-31T19:41:24.857Z,18.10
2022-08-31T19:44:07.318Z,18.00
2022-08-31T19:46:38.095Z,18.00
2022-08-31T19:49:09.670Z,18.00
2022-08-31T19:51:40.187Z,17.90
2022-08-31T19:54:11.431Z,17.80
2022-08-31T19:56:41.400Z,17.80
2022-08-31T19:59:13.064Z,17.80
2022-08-31T20:01:41.518Z,17.70
2022-08-31T20:04:15.846Z,17.70
2022-08-31T20:06:45.223Z,17.70
2022-08-31T20:09:14.475Z,17.70
2022-08-31T20:11:42.804Z,17.60
2022-08-31T20:14:13.207Z,17.60
2022-08-31T20:16:43.150Z,17.60
2022-08-31T20:19:13.996Z,17.60
2022-08-31T20:21:42.612Z,17.50
2022-08-31T20:24:12.850Z,17.50
2022-08-31T20:26:47.568Z,17.50
2022-08-31T20:29:22.308Z,17.50
2022-08-31T20:31:51.954Z,17.50
2022-08-31T20:34:22.865Z,17.40
2022-08-31T20:36:59.878Z,17.30
2022-08-31T20:39:31.322Z,17.30
2022-08-31T20:42:00.485Z,17.20
2022-08-31T20:44:32.049Z,17.20
2022-08-31T20:47:19.713Z,17.20
2022-08-31T20:49:53.670Z,17.10
2022-08-31T20:52:23.741Z,17.10
2022-08-31T20:55:02.042Z,17.10
2022-08-31T20:57:31.746Z,17.10
2022-08-31T21:00:02.994Z,17.00
2022-08-31T21:02:33.437Z,17.00
2022-08-31T21:05:20.741Z,16.90
2022-08-31T21:07:50.429Z,16.90
2022-08-31T21:10:21.189Z,16.80
2022-08-31T21:13:04.474Z,16.80
2022-08-31T21:15:33.906Z,16.80
2022-08-31T21:18:01.998Z,16.80
2022-08-31T21:20:31.215Z,16.80
2022-08-31T21:22:59.230Z,16.70
2022-08-31T21:25:27.307Z,16.70
2022-08-31T21:27:55.400Z,16.80
2022-08-31T21:30:23.610Z,16.70
2022-08-31T21:32:53.149Z,16.70
2022-08-31T21:35:21.291Z,16.70
2022-08-31T21:37:49.388Z,16.70
2022-08-31T21:40:18.431Z,16.80
2022-08-31T21:42:46.672Z,16.80
2022-08-31T21:45:14.923Z,16.80
2022-08-31T21:47:43.394Z,16.80
2022-08-31T21:50:13.614Z,16.80
2022-08-31T21:52:41.684Z,16.80
2022-08-31T21:55:13.557Z,16.80
2022-08-31T21:57:43.300Z,16.80
2022-08-31T22:00:17.090Z,16.80
2022-08-31T22:02:50.904Z,16.70
2022-08-31T22:05:20.689Z,16.80
2022-08-31T22:07:49.237Z,16.70
2022-08-31T22:10:17.434Z,16.70
2022-08-31T22:12:45.458Z,16.70
2022-08-31T22:15:16.737Z,16.70
2022-08-31T22:18:05.976Z,16.70
2022-08-31T22:20:35.969Z,16.70
2022-08-31T22:23:05.557Z,16.60
2022-08-31T22:25:38.727Z,16.60
2022-08-31T22:28:07.688Z,16.60
2022-08-31T22:30:37.500Z,16.70
2022-08-31T22:33:05.762Z,16.60
2022-08-31T22:35:38.899Z,16.60
2022-08-31T22:38:08.703Z,16.60
2022-08-31T22:40:39.516Z,16.60
2022-08-31T22:43:09.734Z,16.60
2022-08-31T22:45:48.123Z,16.60
2022-08-31T22:48:16.751Z,16.60
2022-08-31T22:50:46.273Z,16.60
2022-08-31T22:53:14.907Z,16.60
2022-08-31T22:55:44.170Z,16.60
2022-08-31T22:58:13.735Z,16.60
2022-08-31T23:00:42.843Z,16.60
2022-08-31T23:03:13.603Z,16.60
2022-08-31T23:05:43.475Z,16.70
2022-08-31T23:08:13.930Z,16.60
2022-08-31T23:10:42.154Z,16.60
2022-08-31T23:13:10.222Z,16.60
2022-08-31T23:15:38.449Z,16.60
2022-08-31T23:18:10.418Z,16.60
2022-08-31T23:20:41.887Z,16.60
2022-08-31T23:23:10.379Z,16.60
2022-08-31T23:25:41.013Z,16.60
2022-08-31T23:28:09.470Z,16.50
2022-08-31T23:30:38.088Z,16.50
2022-08-31T23:33:06.914Z,16.50
2022-08-31T23:35:34.932Z,16.50
2022-08-31T23:38:02.955Z,16.50
2022-08-31T23:40:34.292Z,16.50
2022-08-31T23:43:03.935Z,16.40
2022-08-31T23:45:32.495Z,16.40
2022-08-31T23:48:01.340Z,16.40
2022-08-31T23:50:29.437Z,16.40
2022-08-31T23:52:57.524Z,16.30
2022-08-31T23:55:31.089Z,16.30
2022-08-31T23:57:59.564Z,16.30
